| time (UTC) | temp F | wind direction | speed MPH | gust MPH | rain 1hr in | rain 24hr in | rain mn in | humidity % | barometer mb |
| 20260507101504 | 60 | 301 | 0.0 | 5.0 | 0.00 | 0.32 | 0.02 | 51 | |
| 20260507101004 | 60 | 194 | 0.0 | 2.0 | 0.00 | 0.32 | 0.02 | 55 | |
| 20260507100504 | 60 | 241 | 0.0 | 2.0 | 0.00 | 0.32 | 0.02 | 53 | |
| 20260507100004 | 60 | 289 | 0.0 | 2.0 | 0.00 | 0.32 | 0.02 | 53 | |
| 20260507095504 | 60 | 293 | 0.0 | 4.0 | 0.00 | 0.32 | 0.02 | 53 | |
| 20260507095004 | 61 | 267 | 0.0 | 4.0 | 0.00 | 0.32 | 0.02 | 53 | |
| 20260507094504 | 62 | 254 | 1.0 | 4.0 | 0.00 | 0.32 | 0.02 | 54 | |
| 20260507094004 | 62 | 288 | 1.0 | 7.0 | 0.00 | 0.32 | 0.02 | 55 | |
| 20260507093504 | 62 | 300 | 2.0 | 7.0 | 0.00 | 0.32 | 0.02 | 56 | |
| 20260507093004 | 60 | 327 | 0.0 | 3.0 | 0.00 | 0.32 | 0.02 | 66 | |
| 20260507092504 | 59 | 311 | 1.0 | 3.0 | 0.00 | 0.32 | 0.02 | 69 | |
| 20260507092004 | 57 | 296 | 1.0 | 3.0 | 0.00 | 0.32 | 0.02 | 68 | |
| 20260507091504 | 57 | 292 | 1.0 | 2.0 | 0.00 | 0.32 | 0.02 | 69 | |
| 20260507091004 | 56 | 267 | 0.0 | 2.0 | 0.00 | 0.32 | 0.02 | 70 | |
| 20260507090504 | 56 | 254 | 0.0 | 3.0 | 0.00 | 0.32 | 0.02 | 70 | |
| 20260507090005 | 56 | 250 | 0.0 | 3.0 | 0.00 | 0.32 | 0.02 | 70 | |
| 20260507085504 | 56 | 198 | 2.0 | 4.0 | 0.00 | 0.32 | 0.02 | 70 | |
| 20260507085004 | 56 | 208 | 1.0 | 4.0 | 0.00 | 0.32 | 0.02 | 70 | |
| 20260507084504 | 56 | 238 | 1.0 | 4.0 | 0.00 | 0.32 | 0.02 | 70 | |
| 20260507084004 | 57 | 245 | 1.0 | 4.0 | 0.00 | 0.32 | 0.02 | 72 | |
| 20260507083504 | 56 | 213 | 0.0 | 2.0 | 0.00 | 0.32 | 0.02 | 75 | |
| 20260507083004 | 56 | 222 | 0.0 | 3.0 | 0.00 | 0.32 | 0.02 | 75 | |
| 20260507082504 | 55 | 244 | 0.0 | 3.0 | 0.00 | 0.32 | 0.02 | 75 | |
| 20260507082004 | 55 | 253 | 2.0 | 4.0 | 0.00 | 0.32 | 0.02 | 77 | |
| 20260507081504 | 55 | 270 | 1.0 | 4.0 | 0.00 | 0.32 | 0.02 | 79 | |
| 20260507081004 | 54 | 276 | 1.0 | 2.0 | 0.00 | 0.32 | 0.02 | 82 | |
| 20260507080504 | 54 | 251 | 0.0 | 2.0 | 0.00 | 0.32 | 0.02 | 83 | |
| 20260507080004 | 54 | 187 | 0.0 | 3.0 | 0.00 | 0.32 | 0.02 | 83 | |
| 20260507075504 | 53 | 191 | 0.0 | 3.0 | 0.00 | 0.32 | 0.02 | 84 | |
| 20260507075004 | 53 | 215 | 0.0 | 2.0 | 0.00 | 0.32 | 0.02 | 85 | |
| 20260507074504 | 53 | 174 | 0.0 | 2.0 | 0.00 | 0.32 | 0.02 | 85 | |
| 20260507074004 | 53 | 178 | 0.0 | 2.0 | 0.00 | 0.32 | 0.02 | 85 | |
| 20260507073504 | 53 | 186 | 0.0 | 2.0 | 0.00 | 0.32 | 0.02 | 86 | |
| 20260507073004 | 53 | 173 | 0.0 | 2.0 | 0.00 | 0.32 | 0.02 | 86 | |
| 20260507072504 | 52 | 254 | 0.0 | 2.0 | 0.00 | 0.32 | 0.02 | 86 | |
| 20260507072004 | 52 | 236 | 0.0 | 2.0 | 0.00 | 0.32 | 0.02 | 87 | |
| 20260507071504 | 52 | 134 | 0.0 | 2.0 | 0.00 | 0.32 | 0.02 | 87 | |
| 20260507071004 | 52 | 49 | 0.0 | 2.0 | 0.00 | 0.32 | 0.02 | 87 | |
| 20260507070504 | 52 | 65 | 0.0 | 3.0 | 0.00 | 0.32 | 0.02 | 87 | |
| 20260507070008 | 52 | 132 | 0.0 | 3.0 | 0.00 | 0.32 | 0.02 | 87 | |
| 20260507065504 | 52 | 146 | 1.0 | 3.0 | 0.00 | 0.32 | 0.02 | 87 | |
| 20260507065004 | 52 | 147 | 0.0 | 2.0 | 0.00 | 0.32 | 0.02 | 88 | |
| 20260507064504 | 52 | 135 | 0.0 | 2.0 | 0.00 | 0.32 | 0.02 | 88 | |
| 20260507064004 | 52 | 180 | 0.0 | 1.0 | 0.00 | 0.32 | 0.02 | 88 | |
| 20260507063504 | 51 | 180 | 0.0 | 1.0 | 0.00 | 0.32 | 0.02 | 88 | |
| 20260507063004 | 51 | 0 | 0.0 | 0.0 | 0.00 | 0.32 | 0.02 | 87 | |
| 20260507062504 | 51 | 135 | 0.0 | 2.0 | 0.00 | 0.32 | 0.02 | 87 | |
| 20260507062004 | 51 | 127 | 0.0 | 2.0 | 0.00 | 0.32 | 0.02 | 87 | |
| 20260507061504 | 51 | 121 | 0.0 | 2.0 | 0.00 | 0.32 | 0.02 | 87 | |
| 20260507061004 | 51 | 130 | 0.0 | 1.0 | 0.00 | 0.32 | 0.02 | 87 | |
| 20260507060504 | 51 | 135 | 0.0 | 2.0 | 0.00 | 0.32 | 0.02 | 88 | |
| 20260507060004 | 51 | 130 | 0.0 | 2.0 | 0.00 | 0.32 | 0.02 | 88 | |
| 20260507055504 | 51 | 129 | 0.0 | 2.0 | 0.00 | 0.32 | 0.02 | 88 | |
| 20260507055004 | 51 | 140 | 0.0 | 2.0 | 0.01 | 0.32 | 0.02 | 88 | |
| 20260507054504 | 51 | 153 | 0.0 | 2.0 | 0.01 | 0.32 | 0.02 | 88 | |
| 20260507054004 | 51 | 177 | 0.0 | 2.0 | 0.01 | 0.32 | 0.02 | 88 | |
| 20260507053504 | 51 | 161 | 0.0 | 1.0 | 0.01 | 0.32 | 0.02 | 88 | |
| 20260507053004 | 51 | 154 | 0.0 | 1.0 | 0.01 | 0.32 | 0.02 | 88 | |
| 20260507052504 | 51 | 178 | 0.0 | 1.0 | 0.01 | 0.32 | 0.02 | 88 | |
| 20260507052004 | 51 | 177 | 0.0 | 1.0 | 0.01 | 0.32 | 0.02 | 88 | |
| 20260507051504 | 51 | 142 | 0.0 | 2.0 | 0.01 | 0.32 | 0.02 | 88 | |
| 20260507051004 | 51 | 132 | 0.0 | 2.0 | 0.01 | 0.32 | 0.02 | 88 | |
| 20260507050504 | 51 | 141 | 0.0 | 2.0 | 0.01 | 0.32 | 0.02 | 88 | |
| 20260507050004 | 51 | 136 | 0.0 | 2.0 | 0.01 | 0.32 | 0.02 | 88 | |
| 20260507045504 | 51 | 129 | 1.0 | 2.0 | 0.01 | 0.32 | 0.02 | 88 | |
| 20260507045004 | 51 | 126 | 0.0 | 2.0 | 0.00 | 0.31 | 0.01 | 88 | |
| 20260507044504 | 51 | 128 | 0.0 | 2.0 | 0.00 | 0.31 | 0.01 | 88 | |
| 20260507044003 | 51 | 131 | 0.0 | 2.0 | 0.00 | 0.31 | 0.01 | 88 | |
| 20260507043504 | 51 | 135 | 0.0 | 2.0 | 0.00 | 0.31 | 0.01 | 88 | |
| 20260507043004 | 51 | 224 | 0.0 | 2.0 | 0.00 | 0.31 | 0.01 | 88 | |
| 20260507042504 | 51 | 243 | 0.0 | 2.0 | 0.00 | 0.31 | 0.01 | 88 | |
| 20260507042004 | 51 | 0 | 0.0 | 0.0 | 0.00 | 0.31 | 0.01 | 88 | |
| 20260507041503 | 51 | 280 | 0.0 | 1.0 | 0.00 | 0.31 | 0.01 | 88 | |
| 20260507041003 | 51 | 274 | 0.0 | 1.0 | 0.00 | 0.31 | 0.01 | 88 | |
| 20260507040504 | 51 | 288 | 0.0 | 1.0 | 0.00 | 0.31 | 0.01 | 88 | |
| 20260507040004 | 51 | 291 | 0.0 | 2.0 | 0.00 | 0.31 | 0.01 | 88 | |
| 20260507035504 | 51 | 285 | 0.0 | 2.0 | 0.00 | 0.31 | 0.01 | 89 | |
| 20260507035004 | 51 | 285 | 0.0 | 2.0 | 0.00 | 0.31 | 0.01 | 89 | |
| 20260507034504 | 51 | 271 | 0.0 | 2.0 | 0.00 | 0.31 | 0.01 | 89 | |
| 20260507034004 | 50 | 273 | 0.0 | 2.0 | 0.00 | 0.31 | 0.01 | 88 | |
| 20260507033503 | 50 | 282 | 0.0 | 2.0 | 0.00 | 0.31 | 0.01 | 88 | |
| 20260507033003 | 50 | 266 | 0.0 | 2.0 | 0.00 | 0.31 | 0.01 | 88 | |
| 20260507032504 | 50 | 237 | 0.0 | 2.0 | 0.00 | 0.31 | 0.01 | 88 | |
| 20260507032003 | 50 | 220 | 0.0 | 2.0 | 0.00 | 0.31 | 0.01 | 88 | |
| 20260507031503 | 50 | 204 | 0.0 | 2.0 | 0.00 | 0.31 | 0.01 | 88 | |
| 20260507031004 | 50 | 184 | 0.0 | 2.0 | 0.00 | 0.31 | 0.01 | 88 | |
| 20260507030503 | 50 | 180 | 0.0 | 2.0 | 0.00 | 0.31 | 0.01 | 88 | |
| 20260507030004 | 50 | 227 | 0.0 | 2.0 | 0.00 | 0.31 | 0.01 | 88 | |
| 20260507025503 | 50 | 258 | 0.0 | 2.0 | 0.00 | 0.31 | 0.01 | 88 | |
| 20260507025003 | 50 | 227 | 0.0 | 2.0 | 0.00 | 0.31 | 0.01 | 88 | |
| 20260507024503 | 50 | 233 | 0.0 | 2.0 | 0.00 | 0.31 | 0.01 | 88 | |
| 20260507024003 | 50 | 259 | 0.0 | 2.0 | 0.00 | 0.31 | 0.01 | 88 | |
| 20260507023503 | 50 | 263 | 0.0 | 2.0 | 0.00 | 0.31 | 0.01 | 88 | |
| 20260507023004 | 50 | 247 | 0.0 | 1.0 | 0.00 | 0.31 | 0.01 | 88 | |
| 20260507022504 | 50 | 180 | 0.0 | 1.0 | 0.00 | 0.31 | 0.01 | 88 | |
| 20260507022003 | 50 | 159 | 0.0 | 2.0 | 0.00 | 0.31 | 0.01 | 88 | |
| 20260507021503 | 50 | 145 | 0.0 | 2.0 | 0.00 | 0.31 | 0.01 | 88 | |
| 20260507021003 | 50 | 135 | 0.0 | 1.0 | 0.00 | 0.31 | 0.01 | 88 | |
| 20260507020503 | 50 | 140 | 0.0 | 1.0 | 0.00 | 0.31 | 0.01 | 87 | |
| 20260507020004 | 50 | 162 | 0.0 | 1.0 | 0.00 | 0.31 | 0.01 | 87 | |
| 20260507015503 | 50 | 180 | 0.0 | 1.0 | 0.00 | 0.31 | 0.01 | 87 | |
| 20260507015004 | 50 | 180 | 0.0 | 1.0 | 0.00 | 0.31 | 0.01 | 87 | |
| 20260507014503 | 50 | 150 | 0.0 | 1.0 | 0.00 | 0.31 | 0.01 | 87 | |
| 20260507014003 | 50 | 150 | 0.0 | 1.0 | 0.00 | 0.31 | 0.01 | 87 | |
| 20260507013504 | 50 | 180 | 0.0 | 1.0 | 0.01 | 0.31 | 0.01 | 87 | |
| 20260507013003 | 50 | 0 | 0.0 | 0.0 | 0.01 | 0.31 | 0.01 | 87 | |
| 20260507012503 | 50 | 0 | 0.0 | 0.0 | 0.01 | 0.31 | 0.01 | 87 | |
| 20260507012003 | 50 | 247 | 0.0 | 1.0 | 0.01 | 0.31 | 0.01 | 87 | |
| 20260507011503 | 50 | 215 | 0.0 | 1.0 | 0.01 | 0.31 | 0.01 | 87 | |
| 20260507011003 | 50 | 135 | 0.0 | 1.0 | 0.01 | 0.31 | 0.01 | 86 | |
| 20260507010503 | 50 | 0 | 0.0 | 0.0 | 0.01 | 0.31 | 0.01 | 86 | |
| 20260507010004 | 50 | 0 | 0.0 | 0.0 | 0.01 | 0.31 | 0.01 | 86 | |
| 20260507005503 | 50 | 0 | 0.0 | 0.0 | 0.01 | 0.31 | 0.01 | 86 | |
| 20260507005003 | 50 | 360 | 0.0 | 1.0 | 0.01 | 0.31 | 0.01 | 86 | |
| 20260507004503 | 50 | 360 | 0.0 | 1.0 | 0.01 | 0.31 | 0.01 | 86 | |
| 20260507004003 | 50 | 0 | 0.0 | 0.0 | 0.01 | 0.31 | 0.01 | 86 | |
| 20260507003503 | 50 | 0 | 0.0 | 0.0 | 0.00 | 0.30 | 0.00 | 86 | |
| 20260507003003 | 51 | 135 | 0.0 | 1.0 | 0.00 | 0.30 | 0.00 | 86 | |
| 20260507002503 | 50 | 135 | 0.0 | 1.0 | 0.00 | 0.30 | 0.00 | 86 | |
| 20260507002003 | 51 | 135 | 0.0 | 1.0 | 0.00 | 0.30 | 0.00 | 86 | |
| 20260507001503 | 51 | 135 | 0.0 | 1.0 | 0.00 | 0.30 | 0.00 | 85 | |
| 20260507001003 | 51 | 0 | 0.0 | 0.0 | 0.00 | 0.30 | 0.00 | 85 | |
| 20260507000503 | 51 | 0 | 0.0 | 0.0 | 0.00 | 0.30 | 0.00 | 85 | |
| 20260507000004 | 51 | 0 | 0.0 | 0.0 | 0.00 | 0.30 | 0.00 | 85 | |
| 20260506235503 | 51 | 0 | 0.0 | 0.0 | 0.00 | 0.30 | 0.00 | 85 | |
| 20260506235003 | 51 | 0 | 0.0 | 0.0 | 0.00 | 0.30 | 0.00 | 84 | |
| 20260506234504 | 51 | 0 | 0.0 | 0.0 | 0.00 | 0.30 | 0.00 | 84 | |
| 20260506234003 | 51 | 0 | 0.0 | 0.0 | 0.00 | 0.30 | 0.00 | 84 | |
| 20260506233503 | 51 | 0 | 0.0 | 0.0 | 0.00 | 0.30 | 0.00 | 84 | |
| 20260506233003 | 51 | 0 | 0.0 | 0.0 | 0.00 | 0.30 | 0.00 | 83 | |
| 20260506232503 | 51 | 0 | 0.0 | 0.0 | 0.00 | 0.30 | 0.00 | 83 | |
| 20260506232003 | 51 | 0 | 0.0 | 0.0 | 0.00 | 0.30 | 0.00 | 83 | |
| 20260506231503 | 51 | 0 | 0.0 | 0.0 | 0.00 | 0.30 | 0.00 | 83 | |
| 20260506231003 | 51 | 0 | 0.0 | 0.0 | 0.00 | 0.30 | 0.00 | 82 | |
| 20260506230503 | 51 | 0 | 0.0 | 0.0 | 0.00 | 0.30 | 0.00 | 82 | |
| 20260506230003 | 51 | 0 | 0.0 | 0.0 | 0.00 | 0.30 | 0.00 | 82 | |
| 20260506225503 | 51 | 0 | 0.0 | 0.0 | 0.00 | 0.30 | 0.00 | 81 | |
| 20260506225003 | 51 | 0 | 0.0 | 0.0 | 0.00 | 0.30 | 0.00 | 81 | |
| 20260506224503 | 51 | 135 | 0.0 | 2.0 | 0.00 | 0.30 | 0.00 | 81 | |
| 20260506224003 | 51 | 135 | 0.0 | 2.0 | 0.00 | 0.30 | 0.00 | 80 | |
| 20260506223503 | 51 | 135 | 0.0 | 2.0 | 0.00 | 0.30 | 0.00 | 80 | |
| 20260506223003 | 51 | 135 | 0.0 | 2.0 | 0.00 | 0.30 | 0.00 | 80 | |
| 20260506222503 | 51 | 135 | 0.0 | 2.0 | 0.00 | 0.30 | 0.00 | 79 | |
| 20260506222003 | 51 | 135 | 0.0 | 2.0 | 0.00 | 0.30 | 0.00 | 79 | |
| 20260506221504 | 51 | 135 | 0.0 | 1.0 | 0.00 | 0.30 | 0.00 | 79 | |
| 20260506221003 | 51 | 0 | 0.0 | 0.0 | 0.00 | 0.30 | 0.00 | 79 | |
| 20260506220503 | 51 | 153 | 0.0 | 1.0 | 0.00 | 0.30 | 0.00 | 80 | |
| 20260506220004 | 51 | 136 | 0.0 | 2.0 | 0.00 | 0.30 | 0.00 | 80 | |
| 20260506215503 | 51 | 168 | 0.0 | 2.0 | 0.00 | 0.30 | 0.30 | 81 | |
| 20260506215004 | 51 | 215 | 0.0 | 6.0 | 0.00 | 0.30 | 0.30 | 82 | |
| 20260506214503 | 51 | 201 | 1.0 | 6.0 | 0.00 | 0.30 | 0.30 | 83 | |
| 20260506214003 | 51 | 179 | 2.0 | 6.0 | 0.00 | 0.30 | 0.30 | 83 | |
| 20260506213503 | 51 | 185 | 0.0 | 3.0 | 0.00 | 0.30 | 0.30 | 84 | |
| 20260506213003 | 51 | 194 | 1.0 | 4.0 | 0.00 | 0.30 | 0.30 | 84 | |
| 20260506212503 | 51 | 167 | 0.0 | 4.0 | 0.00 | 0.30 | 0.30 | 85 | |
| 20260506212003 | 51 | 155 | 1.0 | 4.0 | 0.00 | 0.30 | 0.30 | 85 | |
| 20260506211503 | 51 | 149 | 0.0 | 2.0 | 0.00 | 0.30 | 0.30 | 86 | |
| 20260506211003 | 51 | 144 | 0.0 | 2.0 | 0.00 | 0.30 | 0.30 | 86 | |
| 20260506210503 | 51 | 130 | 1.0 | 2.0 | 0.00 | 0.30 | 0.30 | 86 | |
| 20260506210003 | 51 | 148 | 1.0 | 2.0 | 0.00 | 0.30 | 0.30 | 86 | |
| 20260506205503 | 51 | 164 | 0.0 | 2.0 | 0.00 | 0.30 | 0.30 | 86 | |
| 20260506205003 | 51 | 154 | 0.0 | 2.0 | 0.00 | 0.30 | 0.30 | 87 | |
| 20260506204503 | 51 | 188 | 0.0 | 1.0 | 0.00 | 0.30 | 0.30 | 87 | |
| 20260506204003 | 52 | 174 | 0.0 | 2.0 | 0.00 | 0.30 | 0.30 | 87 | |
| 20260506203503 | 52 | 197 | 0.0 | 2.0 | 0.00 | 0.30 | 0.30 | 87 | |
| 20260506203003 | 52 | 189 | 0.0 | 2.0 | 0.00 | 0.30 | 0.30 | 88 | |
| 20260506202503 | 52 | 257 | 1.0 | 2.0 | 0.00 | 0.30 | 0.30 | 88 | |
| 20260506202003 | 52 | 286 | 0.0 | 2.0 | 0.00 | 0.30 | 0.30 | 88 | |
| 20260506201503 | 52 | 270 | 0.0 | 2.0 | 0.00 | 0.30 | 0.30 | 88 | |
| 20260506201003 | 52 | 243 | 1.0 | 2.0 | 0.00 | 0.30 | 0.30 | 88 | |
| 20260506200503 | 52 | 240 | 0.0 | 2.0 | 0.00 | 0.30 | 0.30 | 88 | |
| 20260506200004 | 52 | 269 | 0.0 | 2.0 | 0.00 | 0.30 | 0.30 | 88 | |
| 20260506195503 | 52 | 233 | 0.0 | 1.0 | 0.00 | 0.30 | 0.30 | 88 | |
| 20260506195003 | 53 | 225 | 0.0 | 1.0 | 0.00 | 0.30 | 0.30 | 88 | |
| 20260506194503 | 53 | 225 | 0.0 | 1.0 | 0.00 | 0.30 | 0.30 | 87 | |
| 20260506194003 | 52 | 225 | 0.0 | 1.0 | 0.00 | 0.30 | 0.30 | 87 | |
| 20260506193503 | 53 | 225 | 0.0 | 1.0 | 0.00 | 0.30 | 0.30 | 87 | |
| 20260506193003 | 52 | 135 | 0.0 | 1.0 | 0.00 | 0.30 | 0.30 | 87 | |
| 20260506192503 | 52 | 150 | 0.0 | 1.0 | 0.00 | 0.30 | 0.30 | 86 | |
| 20260506192003 | 52 | 152 | 0.0 | 1.0 | 0.00 | 0.30 | 0.30 | 86 | |
| 20260506191503 | 52 | 0 | 0.0 | 0.0 | 0.00 | 0.30 | 0.30 | 86 | |
| 20260506191003 | 52 | 0 | 0.0 | 0.0 | 0.00 | 0.30 | 0.30 | 86 | |
| 20260506190503 | 52 | 0 | 0.0 | 0.0 | 0.00 | 0.30 | 0.30 | 85 | |
| 20260506190004 | 52 | 0 | 0.0 | 0.0 | 0.00 | 0.30 | 0.30 | 85 | |
| 20260506185503 | 52 | 0 | 0.0 | 0.0 | 0.00 | 0.30 | 0.30 | 85 | |
| 20260506185003 | 52 | 0 | 0.0 | 0.0 | 0.00 | 0.30 | 0.30 | 84 | |
| 20260506184503 | 52 | 0 | 0.0 | 0.0 | 0.01 | 0.30 | 0.30 | 84 | |
| 20260506184003 | 52 | 0 | 0.0 | 0.0 | 0.01 | 0.30 | 0.30 | 84 | |
| 20260506183503 | 53 | 0 | 0.0 | 0.0 | 0.01 | 0.30 | 0.30 | 84 | |
| 20260506183003 | 53 | 0 | 0.0 | 0.0 | 0.01 | 0.30 | 0.30 | 84 | |
| 20260506182503 | 53 | 0 | 0.0 | 0.0 | 0.01 | 0.30 | 0.30 | 84 | |
| 20260506182003 | 53 | 0 | 0.0 | 0.0 | 0.01 | 0.30 | 0.30 | 83 | |
| 20260506181503 | 53 | 0 | 0.0 | 0.0 | 0.01 | 0.30 | 0.30 | 83 | |
| 20260506181003 | 53 | 0 | 0.0 | 0.0 | 0.01 | 0.30 | 0.30 | 83 | |
| 20260506180503 | 53 | 0 | 0.0 | 0.0 | 0.01 | 0.30 | 0.30 | 82 | |
| 20260506180004 | 53 | 247 | 0.0 | 1.0 | 0.01 | 0.30 | 0.30 | 82 | |
| 20260506175503 | 53 | 263 | 0.0 | 1.0 | 0.01 | 0.30 | 0.30 | 82 | |
| 20260506175003 | 53 | 259 | 0.0 | 1.0 | 0.01 | 0.30 | 0.30 | 82 | |
| 20260506174503 | 53 | 239 | 0.0 | 1.0 | 0.00 | 0.28 | 0.28 | 82 | |
| 20260506174003 | 53 | 256 | 0.0 | 1.0 | 0.00 | 0.28 | 0.28 | 82 | |
| 20260506173503 | 53 | 315 | 0.0 | 1.0 | 0.00 | 0.28 | 0.28 | 81 | |
| 20260506173003 | 53 | 285 | 0.0 | 1.0 | 0.01 | 0.28 | 0.28 | 81 | |
| 20260506172503 | 53 | 290 | 0.0 | 1.0 | 0.01 | 0.28 | 0.28 | 81 | |
| 20260506172003 | 53 | 276 | 0.0 | 2.0 | 0.01 | 0.28 | 0.28 | 80 | |
| 20260506171503 | 53 | 267 | 0.0 | 2.0 | 0.01 | 0.28 | 0.28 | 80 | |
| 20260506171003 | 53 | 0 | 0.0 | 0.0 | 0.01 | 0.28 | 0.28 | 80 | |
| 20260506170503 | 54 | 315 | 0.0 | 1.0 | 0.01 | 0.28 | 0.28 | 79 | |
| 20260506170003 | 54 | 315 | 0.0 | 1.0 | 0.01 | 0.28 | 0.28 | 79 | |
| 20260506165503 | 54 | 326 | 0.0 | 1.0 | 0.01 | 0.28 | 0.28 | 79 | |
| 20260506165003 | 54 | 199 | 0.0 | 2.0 | 0.01 | 0.28 | 0.28 | 79 | |
| 20260506164505 | 54 | 194 | 0.0 | 2.0 | 0.01 | 0.28 | 0.28 | 78 | |
| 20260506164005 | 54 | 245 | 0.0 | 2.0 | 0.01 | 0.28 | 0.28 | 79 | |
| 20260506163505 | 54 | 160 | 0.0 | 2.0 | 0.01 | 0.28 | 0.28 | 79 | |
| 20260506163005 | 54 | 132 | 0.0 | 2.0 | 0.00 | 0.27 | 0.27 | 79 | |
| 20260506162505 | 54 | 45 | 0.0 | 1.0 | 0.00 | 0.27 | 0.27 | 79 | |
| 20260506162005 | 54 | 135 | 0.0 | 1.0 | 0.00 | 0.27 | 0.27 | 78 | |
| 20260506161505 | 54 | 135 | 0.0 | 2.0 | 0.00 | 0.27 | 0.27 | 78 | |
| 20260506161005 | 54 | 135 | 0.0 | 2.0 | 0.00 | 0.27 | 0.27 | 77 | |
| 20260506160505 | 54 | 135 | 0.0 | 2.0 | 0.00 | 0.27 | 0.27 | 78 | |
| 20260506160005 | 54 | 135 | 0.0 | 2.0 | 0.00 | 0.27 | 0.27 | 78 | |
| 20260506155505 | 54 | 135 | 0.0 | 2.0 | 0.00 | 0.27 | 0.27 | 78 | |
| 20260506155005 | 54 | 133 | 0.0 | 2.0 | 0.00 | 0.27 | 0.27 | 77 | |
| 20260506154505 | 54 | 130 | 0.0 | 2.0 | 0.00 | 0.27 | 0.27 | 77 | |
| 20260506154005 | 54 | 172 | 0.0 | 2.0 | 0.00 | 0.27 | 0.27 | 77 | |
| 20260506153505 | 54 | 160 | 0.0 | 2.0 | 0.00 | 0.27 | 0.27 | 77 | |
| 20260506153005 | 54 | 139 | 0.0 | 2.0 | 0.00 | 0.27 | 0.27 | 77 | |
| 20260506152505 | 54 | 143 | 0.0 | 2.0 | 0.00 | 0.27 | 0.27 | 77 | |
| 20260506152005 | 54 | 158 | 0.0 | 2.0 | 0.00 | 0.27 | 0.27 | 77 | |
| 20260506151505 | 54 | 153 | 0.0 | 2.0 | 0.00 | 0.27 | 0.27 | 77 | |
| 20260506151005 | 54 | 96 | 0.0 | 2.0 | 0.00 | 0.27 | 0.27 | 77 | |
| 20260506150505 | 54 | 150 | 0.0 | 2.0 | 0.00 | 0.27 | 0.27 | 78 | |
| 20260506150005 | 54 | 152 | 0.0 | 3.0 | 0.00 | 0.27 | 0.27 | 78 | |
| 20260506145505 | 54 | 290 | 1.0 | 4.0 | 0.00 | 0.27 | 0.27 | 78 | |
| 20260506145005 | 54 | 264 | 0.0 | 4.0 | 0.00 | 0.27 | 0.27 | 78 | |
| 20260506144505 | 55 | 165 | 1.0 | 2.0 | 0.00 | 0.27 | 0.27 | 79 | |
| 20260506144005 | 55 | 131 | 0.0 | 2.0 | 0.00 | 0.27 | 0.27 | 79 | |
| 20260506143505 | 54 | 143 | 0.0 | 2.0 | 0.00 | 0.27 | 0.27 | 79 | |
| 20260506143005 | 54 | 202 | 0.0 | 2.0 | 0.00 | 0.27 | 0.27 | 79 | |
| 20260506142505 | 54 | 172 | 0.0 | 2.0 | 0.00 | 0.27 | 0.27 | 80 | |
| 20260506142005 | 54 | 152 | 0.0 | 2.0 | 0.01 | 0.27 | 0.27 | 81 | |
| 20260506141505 | 54 | 147 | 0.0 | 2.0 | 0.01 | 0.27 | 0.27 | 81 | |
| 20260506141005 | 54 | 140 | 0.0 | 2.0 | 0.01 | 0.27 | 0.27 | 81 | |
| 20260506140505 | 54 | 143 | 0.0 | 2.0 | 0.01 | 0.27 | 0.27 | 81 | |
| 20260506140005 | 54 | 149 | 0.0 | 3.0 | 0.01 | 0.27 | 0.27 | 81 | |
| 20260506135505 | 53 | 86 | 0.0 | 3.0 | 0.01 | 0.27 | 0.27 | 82 | |
| 20260506135005 | 53 | 26 | 0.0 | 3.0 | 0.01 | 0.27 | 0.27 | 82 | |
| 20260506134505 | 53 | 243 | 0.0 | 3.0 | 0.01 | 0.27 | 0.27 | 82 | |
| 20260506134005 | 53 | 211 | 1.0 | 3.0 | 0.01 | 0.27 | 0.27 | 82 | |
| 20260506133505 | 53 | 201 | 1.0 | 2.0 | 0.02 | 0.27 | 0.27 | 82 | |
| 20260506133005 | 52 | 163 | 0.0 | 4.0 | 0.02 | 0.27 | 0.27 | 82 | |
| 20260506132505 | 52 | 100 | 1.0 | 4.0 | 0.02 | 0.27 | 0.27 | 81 | |
| 20260506132005 | 52 | 85 | 1.0 | 4.0 | 0.01 | 0.26 | 0.26 | 81 | |
| 20260506131505 | 52 | 215 | 2.0 | 6.0 | 0.02 | 0.26 | 0.26 | 81 | |
| 20260506131005 | 52 | 260 | 2.0 | 6.0 | 0.02 | 0.26 | 0.26 | 82 | |
| 20260506130505 | 52 | 264 | 1.0 | 6.0 | 0.04 | 0.26 | 0.26 | 83 | |
| 20260506130005 | 52 | 82 | 1.0 | 8.0 | 0.04 | 0.26 | 0.26 | 83 | |
| 20260506125505 | 52 | 167 | 2.0 | 8.0 | 0.04 | 0.26 | 0.26 | 83 | |
| 20260506125005 | 53 | 215 | 2.0 | 8.0 | 0.04 | 0.26 | 0.26 | 85 | |
| 20260506124505 | 53 | 257 | 2.0 | 3.0 | 0.05 | 0.26 | 0.26 | 85 | |
| 20260506124005 | 53 | 269 | 0.0 | 4.0 | 0.05 | 0.26 | 0.26 | 85 | |
| 20260506123505 | 53 | 308 | 1.0 | 7.0 | 0.07 | 0.25 | 0.25 | 85 | |
| 20260506123005 | 53 | 288 | 2.0 | 7.0 | 0.14 | 0.25 | 0.25 | 86 | |
| 20260506122505 | 54 | 229 | 1.0 | 2.0 | 0.17 | 0.25 | 0.25 | 87 | |
| 20260506122005 | 54 | 238 | 0.0 | 2.0 | 0.18 | 0.25 | 0.25 | 86 | |
| 20260506121505 | 54 | 205 | 0.0 | 2.0 | 0.17 | 0.24 | 0.24 | 86 | |
| 20260506121005 | 53 | 223 | 0.0 | 2.0 | 0.18 | 0.24 | 0.24 | 85 | |
| 20260506120505 | 53 | 256 | 0.0 | 2.0 | 0.18 | 0.22 | 0.22 | 83 | |
| 20260506120005 | 53 | 307 | 0.0 | 4.0 | 0.18 | 0.22 | 0.22 | 83 | |
| 20260506115505 | 53 | 324 | 1.0 | 4.0 | 0.18 | 0.22 | 0.22 | 83 | |
| 20260506115005 | 53 | 289 | 2.0 | 4.0 | 0.19 | 0.22 | 0.22 | 82 | |
| 20260506114505 | 55 | 174 | 1.0 | 4.0 | 0.18 | 0.21 | 0.21 | 81 | |
| 20260506114005 | 54 | 172 | 2.0 | 7.0 | 0.19 | 0.21 | 0.21 | 79 | |
| 20260506113505 | 55 | 204 | 2.0 | 7.0 | 0.15 | 0.18 | 0.18 | 79 | |
| 20260506113005 | 56 | 151 | 1.0 | 4.0 | 0.08 | 0.11 | 0.11 | 79 | |
| 20260506112608 | 56 | 133 | 1.0 | 2.0 | 0.07 | 0.08 | 0.08 | 78 | |
| 20260506112005 | 56 | 134 | 0.0 | 2.0 | 0.06 | 0.07 | 0.07 | 77 | |
| 20260506111505 | 56 | 175 | 0.0 | 2.0 | 0.07 | 0.07 | 0.07 | 76 | |
| 20260506111005 | 56 | 184 | 0.0 | 2.0 | 0.06 | 0.06 | 0.06 | 75 | |
| 20260506110505 | 57 | 180 | 0.0 | 2.0 | 0.05 | 0.05 | 0.05 | 74 | |
| 20260506110005 | 57 | 202 | 0.0 | 2.0 | 0.05 | 0.05 | 0.05 | 74 | |
| 20260506105505 | 57 | 203 | 0.0 | 2.0 | 0.05 | 0.05 | 0.05 | 73 | |
| 20260506105005 | 57 | 183 | 0.0 | 2.0 | 0.04 | 0.04 | 0.04 | 73 | |
| 20260506104505 | 57 | 241 | 0.0 | 1.0 | 0.04 | 0.04 | 0.04 | 72 | |
| 20260506104005 | 57 | 165 | 0.0 | 1.0 | 0.02 | 0.02 | 0.02 | 72 | |
| 20260506103505 | 57 | 125 | 0.0 | 2.0 | 0.02 | 0.02 | 0.02 | 71 | |
| 20260506103005 | 57 | 126 | 0.0 | 2.0 | 0.02 | 0.02 | 0.02 | 70 | |
| 20260506102505 | 57 | 142 | 0.0 | 2.0 | 0.01 | 0.01 | 0.01 | 69 | |
| 20260506102005 | 57 | 128 | 0.0 | 2.0 | 0.01 | 0.01 | 0.01 | 68 |